Time;durP1;ratioP1;P1;durP2;ratioP2;P2;SDS_P1;SDS_P2;PMS_P1;PMS_P2;Temp;Humidity;BMP_temperature;BMP_pressure;BME280_temperature;BME280_humidity;BME280_pressure;Samples;Min_cycle;Max_cycle;Signal;HPM_P1;HPM_P2
2021/11/16 00:02:05;;;;;;;31.13;17.58;;;;;;;8.87;80.38;99949.72;5092828;28;20191;-74
2021/11/16 00:04:32;;;;;;;29.80;18.45;;;;;;;8.82;80.51;99958.91;5092775;28;20207;-74
2021/11/16 00:06:59;;;;;;;34.78;19.85;;;;;;;8.68;81.50;99952.38;5092742;28;20217;-75
2021/11/16 00:09:26;;;;;;;29.60;18.77;;;;;;;8.69;81.56;99955.91;5093027;28;20693;-74
2021/11/16 00:11:53;;;;;;;30.00;19.35;;;;;;;8.82;80.33;99957.13;5092734;28;20299;-74
2021/11/16 00:14:19;;;;;;;29.67;19.20;;;;;;;8.84;80.33;99957.03;5092637;28;20278;-74
2021/11/16 00:16:47;;;;;;;32.30;19.23;;;;;;;8.88;80.15;99956.81;5092358;28;20234;-74
2021/11/16 00:19:15;;;;;;;30.20;19.15;;;;;;;8.79;80.65;99954.53;5092698;28;20597;-75
2021/11/16 00:21:44;;;;;;;30.98;18.60;;;;;;;8.59;81.18;99951.88;5092565;28;20209;-75
2021/11/16 00:24:13;;;;;;;35.75;20.90;;;;;;;8.63;82.61;99958.88;5092907;28;20613;-74
2021/11/16 00:26:40;;;;;;;33.97;20.33;;;;;;;8.50;82.35;99954.06;5092213;28;20234;-75
2021/11/16 00:29:07;;;;;;;33.85;20.00;;;;;;;8.66;82.16;99946.19;5092579;28;20617;-73
2021/11/16 00:31:34;;;;;;;32.22;20.05;;;;;;;8.75;81.49;99942.19;5092442;28;20702;-73
2021/11/16 00:34:03;;;;;;;33.38;19.48;;;;;;;8.83;80.59;99940.03;5092434;28;20209;-74
2021/11/16 00:36:31;;;;;;;31.83;20.30;;;;;;;8.65;81.48;99939.06;5092541;28;20211;-76
2021/11/16 00:38:58;;;;;;;43.53;26.13;;;;;;;8.47;82.54;99938.06;5092641;28;20538;-72
2021/11/16 00:41:25;;;;;;;35.33;22.30;;;;;;;8.42;83.45;99941.91;5092298;28;20234;-74
2021/11/16 00:43:53;;;;;;;48.10;29.48;;;;;;;8.70;82.55;99944.22;5092386;28;20594;-74
2021/11/16 00:46:20;;;;;;;31.80;19.85;;;;;;;8.89;80.94;99941.59;5092515;28;20852;-74
2021/11/16 00:48:47;;;;;;;29.10;17.60;;;;;;;8.89;80.27;99947.84;5092262;28;20238;-73
2021/11/16 00:51:15;;;;;;;37.83;20.15;;;;;;;8.87;80.92;99944.34;5092268;28;20598;-74
2021/11/16 00:53:43;;;;;;;33.55;20.02;;;;;;;8.97;80.48;99945.66;5092358;28;20210;-73
2021/11/16 00:56:11;;;;;;;28.70;18.08;;;;;;;8.90;80.57;99941.50;5092157;28;20225;-74
2021/11/16 00:58:38;;;;;;;35.40;20.52;;;;;;;8.73;81.50;99946.78;5092199;28;20276;-74
2021/11/16 01:01:06;;;;;;;27.48;17.83;;;;;;;8.76;81.94;99950.19;5091874;28;20252;-74
2021/11/16 01:03:33;;;;;;;30.15;18.58;;;;;;;8.66;82.19;99956.03;5092134;28;20190;-74
2021/11/16 01:06:00;;;;;;;31.35;20.48;;;;;;;8.63;82.70;99961.56;5092152;28;20187;-74
2021/11/16 01:08:28;;;;;;;34.08;19.77;;;;;;;8.58;82.96;99956.38;5091941;28;20695;-74
2021/11/16 01:10:55;;;;;;;34.60;19.95;;;;;;;8.51;83.39;99949.56;5091645;28;20203;-75
2021/11/16 01:13:25;;;;;;;34.47;19.23;;;;;;;8.71;82.93;99948.66;5091568;28;20192;-73
2021/11/16 01:15:52;;;;;;;31.45;20.85;;;;;;;8.74;82.47;99946.69;5091932;28;20206;-74
2021/11/16 01:18:20;;;;;;;32.17;20.17;;;;;;;8.72;82.32;99945.91;5091943;28;20232;-74
2021/11/16 01:20:48;;;;;;;27.45;17.88;;;;;;;8.81;82.08;99947.28;5091955;28;20532;-74
2021/11/16 01:23:17;;;;;;;31.83;20.08;;;;;;;8.85;82.48;99948.91;5091712;28;20292;-74
2021/11/16 01:25:47;;;;;;;32.42;19.60;;;;;;;8.98;81.55;99950.09;5095266;28;20215;-74
2021/11/16 01:28:18;;;;;;;32.65;18.65;;;;;;;9.11;80.32;99933.41;5095681;28;20202;-74
2021/11/16 01:30:49;;;;;;;30.75;20.52;;;;;;;8.76;82.15;99938.59;5096372;28;20306;-72
2021/11/16 01:33:20;;;;;;;30.45;19.05;;;;;;;8.53;83.54;99943.16;5095679;28;20198;-74
2021/11/16 01:35:48;;;;;;;32.70;20.25;;;;;;;8.49;84.15;99936.19;5095923;28;20182;-74
2021/11/16 01:38:16;;;;;;;29.80;18.02;;;;;;;8.53;84.41;99936.94;5095442;28;20205;-74
2021/11/16 01:40:45;;;;;;;34.80;19.70;;;;;;;8.50;84.42;99935.28;5095838;28;20622;-74
2021/11/16 01:43:12;;;;;;;30.95;19.67;;;;;;;8.82;83.15;99938.31;5095404;28;20318;-75
2021/11/16 01:45:41;;;;;;;30.73;19.08;;;;;;;8.73;83.56;99930.69;5095331;28;20237;-75
2021/11/16 01:48:09;;;;;;;34.97;19.63;;;;;;;8.85;82.84;99935.47;5095293;28;20216;-75
2021/11/16 01:50:37;;;;;;;29.35;18.65;;;;;;;8.65;84.03;99936.38;5095193;28;20220;-73
2021/11/16 01:53:04;;;;;;;35.63;19.70;;;;;;;8.56;85.18;99934.09;5095500;28;20228;-74
2021/11/16 01:55:31;;;;;;;32.00;18.80;;;;;;;8.50;85.70;99939.72;5095511;28;20189;-74
2021/11/16 01:57:59;;;;;;;28.33;17.73;;;;;;;8.62;85.12;99935.66;5095466;28;20548;-74
2021/11/16 02:00:29;;;;;;;31.75;19.40;;;;;;;8.64;85.13;99928.38;5095579;28;20190;-73
2021/11/16 02:02:56;;;;;;;27.48;16.30;;;;;;;8.73;83.21;99930.69;5095338;28;20251;-73
2021/11/16 02:05:36;;;;;;;28.88;18.00;;;;;;;8.59;82.97;99925.91;5095325;28;20209;-74
2021/11/16 02:08:03;;;;;;;31.40;18.70;;;;;;;8.42;84.29;99923.13;5095192;28;20218;-75
2021/11/16 02:10:31;;;;;;;28.80;17.48;;;;;;;8.29;85.93;99922.75;5094944;28;20187;-74
2021/11/16 02:12:59;;;;;;;31.92;19.05;;;;;;;8.18;86.91;99922.34;5094925;28;20208;-74
2021/11/16 02:15:26;;;;;;;30.08;19.48;;;;;;;8.30;87.40;99921.81;5094934;28;20194;-74
2021/11/16 02:17:52;;;;;;;30.08;19.17;;;;;;;8.30;87.31;99920.00;5095122;28;20267;-74
2021/11/16 02:20:19;;;;;;;33.28;18.80;;;;;;;8.40;86.94;99908.88;5094799;28;20308;-75
2021/11/16 02:22:47;;;;;;;31.23;19.17;;;;;;;8.52;85.95;99909.25;5095078;28;20485;-74
2021/11/16 02:25:14;;;;;;;32.22;17.73;;;;;;;8.38;86.79;99910.75;5094692;28;20188;-75
2021/11/16 02:27:41;;;;;;;29.33;17.35;;;;;;;8.43;87.02;99904.25;5094838;28;20224;-73
2021/11/16 02:30:09;;;;;;;30.23;17.42;;;;;;;8.39;87.35;99904.41;5094810;28;20640;-73
2021/11/16 02:32:36;;;;;;;30.95;17.75;;;;;;;8.59;86.47;99899.06;5094715;28;20195;-74
2021/11/16 02:35:03;;;;;;;29.80;17.92;;;;;;;8.55;85.57;99901.03;5094498;28;20194;-74
2021/11/16 02:37:32;;;;;;;30.35;18.00;;;;;;;8.36;86.27;99902.75;5094723;28;20230;-73
2021/11/16 02:40:00;;;;;;;32.17;18.25;;;;;;;8.38;86.70;99900.00;5094718;28;20278;-73
2021/11/16 02:42:28;;;;;;;28.80;18.02;;;;;;;8.48;86.28;99902.25;5094179;28;20237;-74
2021/11/16 02:44:54;;;;;;;31.83;18.38;;;;;;;8.64;85.33;99901.53;5094197;28;20282;-73
2021/11/16 02:47:21;;;;;;;29.67;18.42;;;;;;;8.76;84.66;99899.19;5094440;28;20191;-73
2021/11/16 02:49:48;;;;;;;34.00;18.38;;;;;;;8.44;85.34;99897.97;5094478;28;20204;-73
2021/11/16 02:52:15;;;;;;;31.60;17.17;;;;;;;8.48;86.12;99901.34;5094538;28;20515;-74
2021/11/16 02:54:43;;;;;;;29.95;17.63;;;;;;;8.64;85.31;99902.44;5094203;28;20189;-73
2021/11/16 02:57:13;;;;;;;30.60;19.10;;;;;;;8.43;86.39;99898.03;5094549;28;20639;-72
2021/11/16 02:59:41;;;;;;;30.25;17.77;;;;;;;8.35;86.61;99891.16;5094494;28;20224;-73
2021/11/16 03:02:10;;;;;;;28.25;18.05;;;;;;;8.51;86.57;99893.19;5094396;28;20185;-72
2021/11/16 03:04:43;;;;;;;29.83;18.23;;;;;;;8.69;85.87;99888.81;5094140;28;20204;-74
2021/11/16 03:07:11;;;;;;;28.88;16.90;;;;;;;8.80;85.26;99878.44;5093882;28;20283;-74
2021/11/16 03:09:39;;;;;;;27.90;17.77;;;;;;;8.50;86.24;99881.59;5094054;28;20207;-74
2021/11/16 03:12:07;;;;;;;28.30;16.90;;;;;;;8.33;87.62;99882.28;5094107;28;20206;-75
2021/11/16 03:14:35;;;;;;;30.73;19.17;;;;;;;8.28;88.28;99884.31;5093816;28;20195;-75
2021/11/16 03:17:01;;;;;;;30.63;18.33;;;;;;;8.59;86.62;99876.72;5093612;28;20281;-74
2021/11/16 03:19:28;;;;;;;32.50;17.20;;;;;;;8.33;87.72;99876.94;5093928;28;20287;-73
2021/11/16 03:21:56;;;;;;;34.58;18.23;;;;;;;8.12;88.99;99877.91;5094005;28;20191;-73
2021/11/16 03:24:24;;;;;;;31.20;19.10;;;;;;;8.08;89.76;99877.13;5093739;28;20696;-73
2021/11/16 03:26:51;;;;;;;32.42;18.33;;;;;;;8.07;90.61;99877.19;5093721;28;20301;-74
2021/11/16 03:29:23;;;;;;;31.52;19.23;;;;;;;8.06;91.02;99875.47;5093703;28;20207;-74
2021/11/16 03:31:52;;;;;;;30.88;18.52;;;;;;;8.28;89.95;99872.72;5093700;28;20187;-74
2021/11/16 03:34:20;;;;;;;37.40;18.73;;;;;;;8.54;88.71;99869.75;5093822;28;20739;-74
2021/11/16 03:36:47;;;;;;;30.50;19.52;;;;;;;8.46;87.80;99871.94;5093876;28;20193;-74
2021/11/16 03:39:14;;;;;;;28.35;17.75;;;;;;;8.36;88.88;99878.59;5093789;28;20193;-74
2021/11/16 03:41:41;;;;;;;30.42;18.40;;;;;;;8.33;88.64;99876.94;5093346;28;20234;-74
2021/11/16 03:44:08;;;;;;;29.98;18.33;;;;;;;8.35;88.94;99871.50;5093692;28;20276;-74
2021/11/16 03:46:34;;;;;;;29.73;16.95;;;;;;;8.41;87.94;99871.28;5093451;28;20190;-74
2021/11/16 03:49:03;;;;;;;32.28;19.48;;;;;;;8.20;88.95;99864.13;5093253;28;20862;-74
2021/11/16 03:51:30;;;;;;;32.90;20.02;;;;;;;8.24;89.77;99868.44;5093340;28;20193;-74
2021/11/16 03:53:57;;;;;;;31.20;18.92;;;;;;;8.46;88.21;99855.81;5093055;28;20224;-75
2021/11/16 03:56:26;;;;;;;30.50;18.35;;;;;;;8.27;88.80;99871.81;5093309;28;20700;-74
2021/11/16 03:58:53;;;;;;;27.48;16.85;;;;;;;8.08;89.95;99866.41;5093059;28;20201;-74
2021/11/16 04:01:19;;;;;;;37.40;20.20;;;;;;;8.34;89.09;99864.38;5093161;28;20281;-73
2021/11/16 04:03:47;;;;;;;28.08;18.20;;;;;;;8.56;88.03;99870.56;5093167;28;20208;-74
2021/11/16 04:06:16;;;;;;;28.65;17.17;;;;;;;8.63;87.24;99863.09;5092737;28;20206;-74
2021/11/16 04:08:42;;;;;;;27.70;17.35;;;;;;;8.70;86.49;99858.31;5093021;28;20556;-74
2021/11/16 04:11:09;;;;;;;32.13;18.65;;;;;;;8.72;85.98;99854.63;5092963;28;20207;-74
2021/11/16 04:13:36;;;;;;;29.20;17.50;;;;;;;8.74;85.58;99860.78;5092506;28;20239;-73
2021/11/16 04:16:03;;;;;;;32.40;19.50;;;;;;;8.91;84.71;99867.16;5092653;28;20195;-74
2021/11/16 04:18:31;;;;;;;25.63;17.15;;;;;;;8.68;85.28;99857.50;5092461;28;20199;-74
2021/11/16 04:20:58;;;;;;;32.58;17.92;;;;;;;8.42;87.00;99870.31;5092641;28;20266;-73
2021/11/16 04:23:27;;;;;;;31.55;19.02;;;;;;;8.52;86.61;99868.97;5092547;28;20287;-74
2021/11/16 04:25:55;;;;;;;30.88;19.27;;;;;;;8.70;85.82;99863.69;5092673;28;20190;-74
2021/11/16 04:28:23;;;;;;;31.40;17.90;;;;;;;8.61;86.06;99869.47;5092162;28;20228;-74
2021/11/16 04:30:50;;;;;;;29.67;18.13;;;;;;;8.70;85.74;99866.38;5092505;28;20644;-74
2021/11/16 04:33:18;;;;;;;32.53;18.60;;;;;;;8.75;84.39;99869.72;5092526;28;20187;-74
2021/11/16 04:35:45;;;;;;;28.90;19.83;;;;;;;8.59;85.23;99874.03;5092352;28;20204;-75
2021/11/16 04:38:14;;;;;;;32.45;18.83;;;;;;;8.56;85.62;99873.25;5092415;28;20187;-74
2021/11/16 04:40:45;;;;;;;32.78;20.55;;;;;;;8.48;86.89;99864.69;5092344;28;20186;-74
2021/11/16 04:43:17;;;;;;;30.55;19.00;;;;;;;8.51;86.54;99859.16;5091899;28;20227;-74
2021/11/16 04:45:44;;;;;;;33.58;19.75;;;;;;;8.38;87.80;99860.63;5092376;28;20192;-75
2021/11/16 04:48:25;;;;;;;33.08;18.95;;;;;;;8.22;88.84;99865.81;5092031;28;20219;-74
2021/11/16 04:51:03;;;;;;;29.35;18.20;;;;;;;8.53;87.72;99864.47;5092232;28;20310;-74
2021/11/16 05:04:42;;;;;;;34.83;20.73;;;;;;;8.52;86.47;99866.28;5091937;28;20300;-74
2021/11/16 05:07:12;;;;;;;32.53;19.65;;;;;;;8.75;84.20;99865.22;5091827;28;20205;-74
2021/11/16 05:09:39;;;;;;;33.17;20.42;;;;;;;8.69;83.92;99870.00;5091722;28;20245;-74
2021/11/16 05:12:08;;;;;;;32.35;19.88;;;;;;;8.51;84.54;99867.22;5091678;28;20648;-74
2021/11/16 05:14:35;;;;;;;36.22;21.20;;;;;;;8.34;87.17;99867.06;5091692;28;20209;-76
2021/11/16 05:17:01;;;;;;;36.28;20.08;;;;;;;8.52;87.35;99860.94;5091914;28;20543;-74
2021/11/16 05:19:28;;;;;;;35.95;20.58;;;;;;;8.50;86.90;99857.44;5091958;28;20185;-74
2021/11/16 05:21:55;;;;;;;37.33;23.05;;;;;;;8.58;86.09;99854.38;5091587;28;20212;-74
2021/11/16 05:24:24;;;;;;;34.70;21.08;;;;;;;8.54;85.43;99856.31;5091509;28;20191;-74
2021/11/16 05:26:50;;;;;;;37.35;20.85;;;;;;;8.58;85.66;99865.13;5091799;28;20230;-74
2021/11/16 05:29:18;;;;;;;32.58;21.20;;;;;;;8.52;85.71;99857.34;5091617;28;20219;-74
2021/11/16 05:31:45;;;;;;;33.55;20.20;;;;;;;8.74;84.79;99857.25;5091811;28;20195;-74
2021/11/16 05:34:12;;;;;;;32.83;19.48;;;;;;;8.58;85.13;99857.06;5091689;28;20196;-74
2021/11/16 05:36:39;;;;;;;33.25;19.75;;;;;;;8.41;86.12;99863.22;5091703;28;20202;-74
2021/11/16 05:39:06;;;;;;;31.23;19.67;;;;;;;8.54;86.37;99861.69;5091521;28;20191;-75
2021/11/16 05:41:33;;;;;;;34.40;19.05;;;;;;;8.71;85.18;99860.94;5091239;28;20477;-74
2021/11/16 05:44:01;;;;;;;28.80;18.30;;;;;;;8.87;84.52;99869.16;5091588;28;20549;-74
2021/11/16 05:46:29;;;;;;;34.47;22.13;;;;;;;8.74;84.66;99863.47;5091384;28;20282;-73
2021/11/16 05:48:56;;;;;;;30.92;19.90;;;;;;;8.70;83.85;99856.50;5091388;28;20626;-74
2021/11/16 05:51:24;;;;;;;37.05;21.70;;;;;;;8.66;82.75;99854.91;5091279;28;20199;-75
2021/11/16 05:53:56;;;;;;;39.10;23.33;;;;;;;8.79;82.03;99851.66;5091243;28;20648;-73
2021/11/16 05:56:23;;;;;;;45.60;22.55;;;;;;;8.68;83.49;99854.81;5091078;28;20195;-74
2021/11/16 05:58:53;;;;;;;38.88;22.25;;;;;;;8.59;84.83;99858.81;5091318;28;20193;-74
2021/11/16 06:01:20;;;;;;;40.92;23.30;;;;;;;8.54;84.79;99859.00;5091432;28;20750;-75
2021/11/16 06:03:51;;;;;;;33.60;21.63;;;;;;;8.52;83.47;99865.41;5091249;28;20271;-73
2021/11/16 06:06:20;;;;;;;39.72;22.50;;;;;;;8.75;82.55;99856.28;5090991;28;20190;-74
2021/11/16 06:08:48;;;;;;;33.15;21.58;;;;;;;8.72;83.81;99872.53;5090834;28;20205;-74
2021/11/16 06:11:16;;;;;;;37.50;23.05;;;;;;;8.82;83.37;99867.59;5093211;28;20183;-73
2021/11/16 06:13:44;;;;;;;35.40;21.75;;;;;;;8.99;81.68;99870.38;5094891;28;20290;-74
2021/11/16 06:16:12;;;;;;;41.03;22.80;;;;;;;9.02;81.46;99877.41;5094755;28;20196;-75
2021/11/16 06:18:40;;;;;;;37.42;22.38;;;;;;;8.99;81.60;99889.19;5094556;28;20197;-74
2021/11/16 06:21:10;;;;;;;37.33;21.90;;;;;;;9.11;81.83;99883.25;5094987;28;20195;-74
2021/11/16 06:23:38;;;;;;;40.78;24.42;;;;;;;8.88;81.88;99881.63;5094660;28;20546;-74
2021/11/16 06:26:04;;;;;;;35.08;21.30;;;;;;;8.91;81.33;99888.66;5093932;28;20204;-76
2021/11/16 06:28:31;;;;;;;42.33;23.58;;;;;;;8.93;82.17;99895.72;5094499;28;20190;-75
2021/11/16 06:30:58;;;;;;;40.33;23.17;;;;;;;8.81;82.45;99893.59;5094753;28;20297;-75
2021/11/16 06:33:25;;;;;;;35.28;22.13;;;;;;;8.89;82.32;99904.00;5094588;28;20223;-74
2021/11/16 06:35:52;;;;;;;38.20;22.23;;;;;;;9.02;81.27;99899.78;5094770;28;20226;-75
2021/11/16 06:38:21;;;;;;;36.53;21.92;;;;;;;9.03;80.63;99900.66;5092531;28;20302;-74
2021/11/16 06:40:48;;;;;;;37.20;22.85;;;;;;;9.29;78.96;99904.78;5094508;28;20188;-74
2021/11/16 06:43:21;;;;;;;33.38;21.33;;;;;;;9.00;79.35;99900.78;5094841;28;20591;-75
2021/11/16 06:45:51;;;;;;;32.25;21.13;;;;;;;9.38;77.71;99915.97;5093581;28;20207;-75
2021/11/16 06:48:17;;;;;;;38.30;23.15;;;;;;;9.34;77.73;99913.53;5095117;28;20291;-74
2021/11/16 06:50:44;;;;;;;35.95;22.48;;;;;;;9.17;78.76;99911.63;5094783;28;20231;-76
2021/11/16 06:53:11;;;;;;;35.00;21.60;;;;;;;9.37;77.50;99913.38;5094860;28;20195;-74
2021/11/16 06:55:39;;;;;;;34.45;22.67;;;;;;;9.28;78.03;99914.66;5094998;28;20626;-74
2021/11/16 06:58:07;;;;;;;34.42;22.30;;;;;;;9.14;78.13;99911.78;5094962;28;20715;-74
2021/11/16 07:00:34;;;;;;;34.53;20.75;;;;;;;8.76;80.48;99911.75;5095276;28;20190;-74
2021/11/16 07:03:04;;;;;;;36.40;21.00;;;;;;;8.85;80.98;99911.31;5095121;28;20191;-74
2021/11/16 07:05:30;;;;;;;33.00;20.88;;;;;;;8.72;81.84;99923.56;5095285;28;20206;-74
2021/11/16 07:07:59;;;;;;;38.03;22.48;;;;;;;8.82;81.82;99922.22;5095041;28;20191;-74
2021/11/16 07:10:31;;;;;;;37.22;22.38;;;;;;;8.93;81.53;99917.22;5095184;28;20221;-75
2021/11/16 07:13:06;;;;;;;34.42;21.55;;;;;;;9.03;81.18;99922.16;5095081;28;20512;-75
2021/11/16 07:15:34;;;;;;;33.38;22.15;;;;;;;9.07;81.54;99919.25;5094769;28;20195;-75
2021/11/16 07:18:02;;;;;;;35.75;19.25;;;;;;;9.25;79.53;99930.06;5094996;28;20287;-76
2021/11/16 07:20:30;;;;;;;39.92;22.83;;;;;;;9.37;79.39;99926.81;5094843;28;20509;-75
2021/11/16 07:22:57;;;;;;;37.50;24.70;;;;;;;9.33;78.68;99931.44;5093986;28;20210;-77
2021/11/16 07:25:24;;;;;;;30.75;20.08;;;;;;;9.36;77.72;99934.00;5094113;28;20280;-74
2021/11/16 07:27:54;;;;;;;36.08;22.92;;;;;;;9.33;77.73;99934.13;5094794;28;20214;-73
2021/11/16 07:30:25;;;;;;;28.50;18.90;;;;;;;9.35;76.64;99931.38;5094621;28;20268;-75
2021/11/16 07:32:54;;;;;;;36.30;21.80;;;;;;;9.15;77.96;99933.19;5095070;28;20585;-75
2021/11/16 07:35:25;;;;;;;38.17;24.25;;;;;;;9.12;78.47;99938.72;5094408;28;20206;-75
2021/11/16 07:37:56;;;;;;;33.17;20.73;;;;;;;9.13;79.74;99947.63;5094575;28;20183;-75
2021/11/16 07:40:23;;;;;;;36.33;22.20;;;;;;;9.12;80.36;99937.84;5094703;28;20600;-75
2021/11/16 07:42:52;;;;;;;31.98;21.35;;;;;;;9.13;80.57;99943.13;5094264;28;20269;-74
2021/11/16 07:45:23;;;;;;;34.47;21.33;;;;;;;9.11;80.81;99944.13;5093957;28;20274;-75
2021/11/16 07:47:53;;;;;;;34.67;19.90;;;;;;;9.11;80.40;99947.72;5093900;28;20621;-76
2021/11/16 07:50:38;;;;;;;36.47;24.65;;;;;;;8.97;80.79;99947.47;5094349;28;20305;-75
2021/11/16 07:53:19;;;;;;;31.38;20.55;;;;;;;9.10;80.40;99942.41;5094238;28;20525;-76
2021/11/16 07:55:57;;;;;;;36.30;21.67;;;;;;;8.87;80.19;99944.34;5094146;28;20229;-75
2021/11/16 07:58:29;;;;;;;33.95;18.83;;;;;;;8.65;81.19;99947.13;5094394;28;20604;-74
2021/11/16 08:01:00;;;;;;;33.35;19.60;;;;;;;8.90;80.86;99941.50;5093743;28;20200;-75
2021/11/16 08:03:27;;;;;;;35.35;21.40;;;;;;;9.12;80.68;99945.91;5094594;28;20192;-75
2021/11/16 08:06:04;;;;;;;35.78;21.65;;;;;;;9.06;80.63;99951.53;5094026;28;20654;-75
2021/11/16 08:08:50;;;;;;;36.58;21.50;;;;;;;8.83;82.74;99950.78;5093939;28;20191;-74
2021/11/16 08:11:21;;;;;;;39.15;21.95;;;;;;;9.15;82.12;99948.44;5093491;28;20200;-74
2021/11/16 08:13:53;;;;;;;36.58;22.40;;;;;;;9.06;82.00;99949.72;5093734;28;20649;-75
2021/11/16 08:16:22;;;;;;;45.97;27.38;;;;;;;9.05;83.18;99947.13;5093469;28;20237;-75
2021/11/16 08:18:50;;;;;;;35.17;20.80;;;;;;;9.14;83.82;99944.00;5093407;28;20195;-75
2021/11/16 08:21:18;;;;;;;31.75;18.85;;;;;;;9.32;81.47;99939.59;5093307;28;20294;-75
2021/11/16 08:23:56;;;;;;;35.35;22.17;;;;;;;9.24;82.57;99939.06;5093778;28;20603;-75
2021/11/16 08:26:26;;;;;;;33.72;21.65;;;;;;;9.06;82.49;99932.75;5093680;28;20281;-75
2021/11/16 08:28:54;;;;;;;37.00;22.58;;;;;;;9.01;83.55;99932.09;5093415;28;20236;-75
2021/11/16 08:31:23;;;;;;;36.83;21.70;;;;;;;8.91;84.49;99926.25;5093095;28;20621;-75
2021/11/16 08:33:52;;;;;;;33.88;21.27;;;;;;;8.75;85.96;99928.78;5092945;28;20297;-75
2021/11/16 08:36:24;;;;;;;40.22;23.42;;;;;;;8.95;84.28;99936.81;5093532;28;20281;-73
2021/11/16 08:38:51;;;;;;;35.92;22.40;;;;;;;8.96;85.17;99935.84;5093366;28;20530;-75
2021/11/16 08:41:30;;;;;;;42.58;22.77;;;;;;;9.10;84.06;99923.59;5092621;28;20199;-75
2021/11/16 08:44:09;;;;;;;37.75;23.50;;;;;;;9.29;82.51;99937.91;5092918;28;20191;-75
2021/11/16 08:46:37;;;;;;;36.20;22.42;;;;;;;9.25;82.61;99935.44;5094375;28;20248;-75
2021/11/16 08:49:04;;;;;;;36.50;21.48;;;;;;;9.32;82.27;99932.41;5091469;28;20204;-76
2021/11/16 08:51:40;;;;;;;39.70;23.10;;;;;;;9.31;82.45;99925.25;5092439;28;20275;-75
2021/11/16 08:54:07;;;;;;;35.28;21.27;;;;;;;9.26;81.05;99919.25;5091711;28;20197;-74
2021/11/16 08:56:38;;;;;;;36.22;20.55;;;;;;;9.07;81.93;99927.31;5092212;28;20274;-74
2021/11/16 08:59:11;;;;;;;40.97;23.00;;;;;;;9.12;82.63;99929.78;5092059;28;20282;-74
2021/11/16 09:01:39;;;;;;;38.22;23.00;;;;;;;9.05;83.48;99931.03;5091870;28;20210;-75
2021/11/16 09:04:08;;;;;;;36.50;23.02;;;;;;;9.12;84.10;99925.28;5092223;28;20209;-74
2021/11/16 09:06:38;;;;;;;39.17;22.63;;;;;;;8.94;84.47;99929.69;5091899;28;20247;-75
2021/11/16 09:09:10;;;;;;;40.38;22.67;;;;;;;9.05;83.55;99933.69;5091764;28;20196;-74
2021/11/16 09:11:38;;;;;;;38.22;22.20;;;;;;;9.16;82.80;99943.00;5091788;28;20183;-74
2021/11/16 09:14:11;;;;;;;36.58;20.70;;;;;;;9.01;83.64;99943.72;5091576;28;20635;-75
2021/11/16 09:16:41;;;;;;;42.10;22.40;;;;;;;8.87;84.84;99948.84;5091983;28;20585;-75
2021/11/16 09:19:08;;;;;;;38.42;24.23;;;;;;;9.01;84.75;99946.38;5091886;28;20617;-75
2021/11/16 09:21:39;;;;;;;38.25;23.63;;;;;;;9.04;85.38;99948.06;5091913;28;20613;-75
2021/11/16 09:24:07;;;;;;;33.78;20.90;;;;;;;9.14;84.95;99944.00;5091840;28;20278;-75
2021/11/16 09:26:41;;;;;;;35.83;22.40;;;;;;;9.19;86.08;99947.34;5091879;28;20194;-74
2021/11/16 09:29:13;;;;;;;36.13;22.10;;;;;;;9.08;85.15;99938.91;5091750;28;20259;-75
2021/11/16 09:31:45;;;;;;;38.80;23.85;;;;;;;8.89;86.61;99942.47;5091780;28;20186;-75
2021/11/16 09:34:27;;;;;;;38.33;22.75;;;;;;;8.67;88.25;99939.88;5091597;28;20183;-75
2021/11/16 09:36:55;;;;;;;38.28;22.35;;;;;;;8.81;87.41;99941.94;5091553;28;20191;-74
2021/11/16 09:39:25;;;;;;;38.45;21.40;;;;;;;8.93;85.24;99943.19;5092047;28;20227;-76
2021/11/16 09:41:55;;;;;;;34.75;20.95;;;;;;;8.69;86.46;99947.88;5091060;28;20361;-75
2021/11/16 09:44:25;;;;;;;37.47;21.55;;;;;;;8.96;85.96;99943.06;5091733;28;20614;-74
2021/11/16 09:46:56;;;;;;;37.03;22.52;;;;;;;8.84;86.84;99941.81;5094403;28;20281;-75
2021/11/16 09:49:31;;;;;;;37.83;23.27;;;;;;;9.01;86.62;99949.06;5095743;28;20538;-75
2021/11/16 09:52:05;;;;;;;42.15;23.40;;;;;;;8.94;87.22;99948.47;5095872;28;20619;-74
2021/11/16 09:54:45;;;;;;;40.60;22.13;;;;;;;9.03;85.96;99940.97;5094898;28;20275;-75
2021/11/16 09:57:14;;;;;;;33.60;21.00;;;;;;;8.87;86.28;99943.47;5095296;28;20351;-75
2021/11/16 09:59:42;;;;;;;36.80;22.00;;;;;;;9.06;86.39;99949.72;5095504;28;20207;-75
2021/11/16 10:02:21;;;;;;;39.35;22.80;;;;;;;8.90;87.76;99957.63;5094959;28;20212;-76
2021/11/16 10:04:50;;;;;;;37.58;21.90;;;;;;;9.01;85.60;99948.22;5095567;28;20240;-76
2021/11/16 10:07:17;;;;;;;37.20;21.70;;;;;;;8.84;85.85;99947.19;5095427;28;20209;-76
2021/11/16 10:09:46;;;;;;;40.28;22.25;;;;;;;8.97;86.21;99942.09;5095413;28;20209;-76
2021/11/16 10:12:12;;;;;;;39.60;22.42;;;;;;;8.96;87.05;99940.38;5095430;28;20192;-75
2021/11/16 10:14:39;;;;;;;40.78;24.23;;;;;;;9.10;86.34;99932.53;5095073;28;20294;-75
2021/11/16 10:17:07;;;;;;;46.22;22.33;;;;;;;9.11;86.08;99936.97;5094960;28;20210;-74
2021/11/16 10:19:35;;;;;;;33.95;22.60;;;;;;;9.19;85.31;99936.59;5094497;28;20184;-75
2021/11/16 10:22:05;;;;;;;34.58;21.48;;;;;;;9.17;84.11;99930.44;5094454;28;20207;-75
2021/11/16 10:24:34;;;;;;;38.08;21.95;;;;;;;8.89;85.87;99926.34;5094779;28;20198;-75
2021/11/16 10:27:03;;;;;;;36.65;20.85;;;;;;;9.00;85.59;99914.22;5094625;28;20285;-76
2021/11/16 10:29:30;;;;;;;37.47;20.70;;;;;;;9.28;84.17;99930.78;5094734;28;20212;-74
2021/11/16 10:31:57;;;;;;;35.22;20.50;;;;;;;9.11;83.88;99922.66;5094645;28;20671;-75
2021/11/16 10:34:41;;;;;;;32.92;20.85;;;;;;;9.10;84.37;99926.28;5094492;28;20183;-74
2021/11/16 10:37:08;;;;;;;34.05;19.95;;;;;;;9.26;84.58;99926.44;5094953;28;20207;-74
2021/11/16 10:39:34;;;;;;;36.22;21.52;;;;;;;9.09;85.68;99925.44;5094975;28;20197;-74
2021/11/16 10:42:04;;;;;;;35.42;21.08;;;;;;;9.20;85.32;99922.22;5094798;28;20586;-75
2021/11/16 10:44:32;;;;;;;40.58;22.75;;;;;;;9.43;84.97;99918.44;5094479;28;20556;-75
2021/11/16 10:47:02;;;;;;;34.20;21.20;;;;;;;9.28;85.53;99916.50;5094221;28;20295;-76
2021/11/16 10:49:29;;;;;;;35.67;19.83;;;;;;;9.21;85.34;99918.59;5094478;28;20605;-75
2021/11/16 10:51:57;;;;;;;32.25;19.27;;;;;;;9.30;84.27;99912.78;5094417;28;20224;-75
2021/11/16 10:54:23;;;;;;;32.72;19.20;;;;;;;9.15;84.80;99914.38;5094508;28;20236;-75
2021/11/16 10:56:58;;;;;;;31.35;18.63;;;;;;;9.23;84.44;99905.09;5092860;28;20187;-75
2021/11/16 10:59:29;;;;;;;31.45;18.75;;;;;;;9.26;85.06;99913.88;5094141;28;20187;-75
2021/11/16 11:01:58;;;;;;;35.13;21.52;;;;;;;9.08;86.72;99915.59;5093957;28;20183;-75
2021/11/16 11:04:27;;;;;;;33.45;20.75;;;;;;;9.03;86.54;99900.66;5094143;28;20652;-75
2021/11/16 11:06:54;;;;;;;35.15;20.50;;;;;;;9.25;85.94;99898.72;5093900;28;20202;-75
2021/11/16 11:09:23;;;;;;;31.08;18.90;;;;;;;9.31;84.29;99890.31;5093532;28;20263;-76
2021/11/16 11:11:53;;;;;;;35.55;18.88;;;;;;;9.48;83.18;99894.03;5093630;28;20296;-76
2021/11/16 11:14:22;;;;;;;35.70;19.95;;;;;;;9.38;84.11;99897.19;5093801;28;20187;-73
2021/11/16 11:16:52;;;;;;;35.65;22.15;;;;;;;9.35;84.87;99894.63;5094184;28;20190;-75
2021/11/16 11:19:21;;;;;;;33.20;19.58;;;;;;;9.38;84.97;99890.91;5093678;28;20277;-76
2021/11/16 11:21:54;;;;;;;36.35;20.98;;;;;;;9.30;85.10;99896.66;5093465;28;20184;-75
2021/11/16 11:24:27;;;;;;;38.80;21.65;;;;;;;9.47;84.26;99886.91;5093694;28;20191;-75
2021/11/16 11:26:56;;;;;;;32.00;20.25;;;;;;;9.21;83.74;99890.88;5093650;28;20192;-76
2021/11/16 11:29:34;;;;;;;29.02;18.10;;;;;;;8.98;85.48;99880.25;5093368;28;20204;-75
2021/11/16 11:32:08;;;;;;;31.13;18.33;;;;;;;8.92;85.96;99885.91;5093370;28;20264;-75
2021/11/16 11:34:45;;;;;;;33.03;19.48;;;;;;;8.66;87.36;99883.56;5093488;28;20198;-74
2021/11/16 11:37:17;;;;;;;33.15;20.77;;;;;;;8.74;88.33;99892.13;5093414;28;20262;-74
2021/11/16 11:39:46;;;;;;;31.75;20.48;;;;;;;9.09;86.51;99884.25;5093516;28;20186;-75
2021/11/16 11:42:14;;;;;;;33.10;20.60;;;;;;;9.15;86.06;99883.97;5093382;28;20644;-74
2021/11/16 11:44:54;;;;;;;29.23;18.35;;;;;;;9.34;83.59;99878.59;5092987;28;20264;-75